Buxhansa — A8TQ5 — position and weather

sailwx.info

Track history (hours):
 
Tides and Currents Weather Stations Pressure Air Temp Water Temp Dewpoint Dewpoint Depression Visibility Wind Speed Wind Dir Waves Ship Positions

Buxhansa

Last reported at 2014-Dec-29 21:33 UTC. Time now 2015-Feb-01 00:31 UTC.
Position N 01°53' E 102°23'.
Warning: this ship's position is 33 days out of date.

Length 208 m; draft 10.4 m.

Type: Ship. MMSI: 636091849.

Date/timePositionNaut miles runAvg speedWind from/ knotsBaromVisibWave heightAir tempDewpointWater temp
2014-Dec-29 21:33N 01°53' E 102°23'1312.9
2014-Dec-29 20:33N 01°48' E 102°35'81 1.8
2014-Dec-27 23:12N 01°13' E 103°49'1 0.1
2014-Dec-27 10:05N 01°13' E 103°49'0 0.0
2014-Dec-27 09:33N 01°13' E 103°49'5 1.6
2014-Dec-27 06:24N 01°17' E 103°45'0 0.0
2014-Dec-27 02:25N 01°17' E 103°45'0 0.0
2014-Dec-27 01:06N 01°17' E 103°45'0 0.0
2014-Dec-26 18:27N 01°17' E 103°45'0 0.0
2014-Dec-26 17:30N 01°17' E 103°45'0 0.0
2014-Dec-26 13:07N 01°17' E 103°45'0 0.0
2014-Dec-26 12:12N 01°17' E 103°45'0 0.0
2014-Dec-26 11:27N 01°17' E 103°45'1 1.1
2014-Dec-26 10:22N 01°16' E 103°46'2 2.9
2014-Dec-26 09:32N 01°15' E 103°44'261 8.3
2014-Dec-25 02:00N 03°30' E 100°00'   220 / 101012.510.8 0.527.024.128.0
2014-Dec-22 03:00N 06°00' E 089°36'   100 / 161013.010.8 1.530.024.330.0
Track history (hours):
 
Tides and Currents Weather Stations Pressure Air Temp Water Temp Dewpoint Dewpoint Depression Visibility Wind Speed Wind Dir Waves Ship Positions

Buxhansa

Last reported at 2014-Dec-29 21:33 UTC. Time now 2015-Feb-01 00:31 UTC.
Position N 01°53' E 102°23'.
Warning: this ship's position is 33 days out of date.

Length 208 m; draft 10.4 m.

Type: Ship. MMSI: 636091849.

Date/timePositionNaut miles runAvg speedWind from/ knotsBaromVisibWave heightAir tempDewpointWater temp
2014-Dec-29 21:33N 01°53' E 102°23'1312.9
2014-Dec-29 20:33N 01°48' E 102°35'81 1.8
2014-Dec-27 23:12N 01°13' E 103°49'1 0.1
2014-Dec-27 10:05N 01°13' E 103°49'0 0.0
2014-Dec-27 09:33N 01°13' E 103°49'5 1.6
2014-Dec-27 06:24N 01°17' E 103°45'0 0.0
2014-Dec-27 02:25N 01°17' E 103°45'0 0.0
2014-Dec-27 01:06N 01°17' E 103°45'0 0.0
2014-Dec-26 18:27N 01°17' E 103°45'0 0.0
2014-Dec-26 17:30N 01°17' E 103°45'0 0.0
2014-Dec-26 13:07N 01°17' E 103°45'0 0.0
2014-Dec-26 12:12N 01°17' E 103°45'0 0.0
2014-Dec-26 11:27N 01°17' E 103°45'1 1.1
2014-Dec-26 10:22N 01°16' E 103°46'2 2.9
2014-Dec-26 09:32N 01°15' E 103°44'261 8.3
2014-Dec-25 02:00N 03°30' E 100°00'   220 / 101012.510.8 0.527.024.128.0
2014-Dec-22 03:00N 06°00' E 089°36'   100 / 161013.010.8 1.530.024.330.0

Dump ship's entire track history